Terminal Aerodrome Forecast
Issued by NWS Bismarck, ND

Home | Current Version | Previous Version | Graphics & Text | Print | Product List | Glossary On
Versions: 1 2 3 4 5 6 7 8 9 10 11 12 13 14 15 16 17 18 19 20 21 22
000
FTUS43 KBIS 111139 AAD
TAFISN
TAF AMD
KISN 111139Z 1112/1212 34023G32KT P6SM OVC015
     FM111500 32019G28KT P6SM VCSH OVC015
     FM111800 32011G19KT P6SM VCSH OVC020
     FM112000 32012KT P6SM OVC020
     FM120100 30006KT P6SM BKN035
     FM120400 28005KT P6SM SCT250=

USA.gov is the U.S. government's official web portal to all federal, state and local government web resources and services.